Time;durP1;ratioP1;P1;durP2;ratioP2;P2;SDS_P1;SDS_P2;PMS_P1;PMS_P2;Temp;Humidity;BMP_temperature;BMP_pressure;BME280_temperature;BME280_humidity;BME280_pressure;Samples;Min_cycle;Max_cycle;Signal;HPM_P1;HPM_P2
2023/02/27 00:01:03;;;;;;;3.03;2.20;;;;;;;;;;2069228;28;20469;-79
2023/02/27 00:02:22;;;;;;;6.40;2.10;;;;;;;;;;2075974;28;20028;-80
2023/02/27 00:03:41;;;;;;;2.97;1.63;;;;;;;;;;2068495;28;20022;-79
2023/02/27 00:05:01;;;;;;;5.15;2.22;;;;;;;;;;2075511;28;20026;-79
2023/02/27 00:06:20;;;;;;;2.92;2.03;;;;;;;;;;2079218;28;20022;-79
2023/02/27 00:07:39;;;;;;;3.83;1.73;;;;;;;;;;2075250;28;20022;-79
2023/02/27 00:08:58;;;;;;;4.43;2.05;;;;;;;;;;2076794;28;20025;-79
2023/02/27 00:10:17;;;;;;;4.38;1.90;;;;;;;;;;2080126;28;20124;-79
2023/02/27 00:11:37;;;;;;;3.78;2.13;;;;;;;;;;2078954;28;20037;-79
2023/02/27 00:12:56;;;;;;;5.43;2.10;;;;;;;;;;2069366;28;20033;-78
2023/02/27 00:14:15;;;;;;;8.75;3.22;;;;;;;;;;2077381;28;20021;-80
2023/02/27 00:15:36;;;;;;;5.60;2.05;;;;;;;;;;2078354;28;20060;-78
2023/02/27 00:16:54;;;;;;;5.97;2.20;;;;;;;;;;2072536;28;20048;-80
2023/02/27 00:18:13;;;;;;;4.05;1.92;;;;;;;;;;2073030;28;20060;-79
2023/02/27 00:19:32;;;;;;;8.50;2.63;;;;;;;;;;2070214;28;20033;-79
2023/02/27 00:20:52;;;;;;;4.20;1.75;;;;;;;;;;2076166;28;20029;-79
2023/02/27 00:22:11;;;;;;;5.50;1.90;;;;;;;;;;2074690;28;20026;-79
2023/02/27 00:23:30;;;;;;;4.15;2.03;;;;;;;;;;2067025;28;20030;-79
2023/02/27 00:24:48;;;;;;;4.78;2.03;;;;;;;;;;2077822;28;20041;-79
2023/02/27 00:26:07;;;;;;;5.10;1.90;;;;;;;;;;2072520;28;20518;-79
2023/02/27 00:27:26;;;;;;;9.52;2.30;;;;;;;;;;2077216;28;20116;-79
2023/02/27 00:28:45;;;;;;;8.75;2.03;;;;;;;;;;2078693;28;20402;-79
2023/02/27 00:30:04;;;;;;;8.35;2.10;;;;;;;;;;2081146;28;20029;-79
2023/02/27 00:31:23;;;;;;;7.00;1.98;;;;;;;;;;2078930;28;20049;-79
2023/02/27 00:32:43;;;;;;;2.30;1.75;;;;;;;;;;2079893;28;20832;-79
2023/02/27 00:34:02;;;;;;;4.05;1.65;;;;;;;;;;2078888;28;20037;-79
2023/02/27 00:35:22;;;;;;;5.85;2.45;;;;;;;;;;2073190;28;20026;-79
2023/02/27 00:36:41;;;;;;;4.28;2.00;;;;;;;;;;2075954;28;20041;-79
2023/02/27 00:38:00;;;;;;;3.13;2.03;;;;;;;;;;2081702;28;20029;-79
2023/02/27 00:39:19;;;;;;;4.75;2.28;;;;;;;;;;2081151;28;20030;-80
2023/02/27 00:40:38;;;;;;;6.57;2.10;;;;;;;;;;2075187;28;20113;-79
2023/02/27 00:41:57;;;;;;;3.80;2.47;;;;;;;;;;2068637;28;20033;-79
2023/02/27 00:43:15;;;;;;;4.68;2.38;;;;;;;;;;2079077;28;20042;-80
2023/02/27 00:44:34;;;;;;;6.30;1.92;;;;;;;;;;2070900;28;20125;-79
2023/02/27 00:45:53;;;;;;;3.72;1.90;;;;;;;;;;2075968;28;20026;-79
2023/02/27 00:47:12;;;;;;;4.45;2.05;;;;;;;;;;2081234;28;20387;-78
2023/02/27 00:48:31;;;;;;;5.72;1.90;;;;;;;;;;2074741;28;21568;-80
2023/02/27 00:49:50;;;;;;;6.80;1.88;;;;;;;;;;2078853;28;20030;-80
2023/02/27 00:51:09;;;;;;;4.30;1.70;;;;;;;;;;2082564;28;20029;-79
2023/02/27 00:52:28;;;;;;;9.68;2.83;;;;;;;;;;2082084;28;20029;-79
2023/02/27 00:53:47;;;;;;;2.45;1.73;;;;;;;;;;2079512;28;20030;-80
2023/02/27 00:55:09;;;;;;;7.35;2.40;;;;;;;;;;2081602;28;20034;-81
2023/02/27 00:56:28;;;;;;;6.15;2.15;;;;;;;;;;2082645;28;20120;-80
2023/02/27 00:57:47;;;;;;;7.40;2.17;;;;;;;;;;2076057;28;20025;-80
2023/02/27 00:59:06;;;;;;;5.32;2.20;;;;;;;;;;2076279;28;20030;-80
2023/02/27 01:00:26;;;;;;;4.57;2.30;;;;;;;;;;2072812;28;20042;-79
2023/02/27 01:01:45;;;;;;;3.47;1.92;;;;;;;;;;2078243;28;20417;-79
2023/02/27 01:03:04;;;;;;;5.10;1.83;;;;;;;;;;2074590;28;20037;-78
2023/02/27 01:04:23;;;;;;;4.57;2.42;;;;;;;;;;2075867;28;20018;-79
2023/02/27 01:05:42;;;;;;;5.93;2.00;;;;;;;;;;2078854;28;20022;-79
2023/02/27 01:07:02;;;;;;;5.10;2.22;;;;;;;;;;2069982;28;20509;-79
2023/02/27 01:08:20;;;;;;;5.88;2.40;;;;;;;;;;2069297;28;20033;-79
2023/02/27 01:09:40;;;;;;;4.30;2.08;;;;;;;;;;2077525;28;20033;-78
2023/02/27 01:10:59;;;;;;;3.90;1.98;;;;;;;;;;2076115;28;20483;-80
2023/02/27 01:12:18;;;;;;;3.00;2.70;;;;;;;;;;2077223;28;20041;-79
2023/02/27 01:13:37;;;;;;;5.78;2.10;;;;;;;;;;2077285;28;20030;-79
2023/02/27 01:14:55;;;;;;;3.80;1.65;;;;;;;;;;2079743;28;20041;-79
2023/02/27 01:16:14;;;;;;;8.32;1.92;;;;;;;;;;2079301;28;20084;-78
2023/02/27 01:17:34;;;;;;;5.78;2.08;;;;;;;;;;2081605;28;20030;-79
2023/02/27 01:18:53;;;;;;;4.00;2.35;;;;;;;;;;2080680;28;20072;-79
2023/02/27 01:20:12;;;;;;;6.95;1.90;;;;;;;;;;2081934;28;20037;-80
2023/02/27 01:21:31;;;;;;;6.63;2.70;;;;;;;;;;2075727;28;20034;-79
2023/02/27 01:22:50;;;;;;;4.25;2.00;;;;;;;;;;2078044;28;20433;-79
2023/02/27 01:24:09;;;;;;;4.90;2.38;;;;;;;;;;2081502;28;20026;-79
2023/02/27 01:25:28;;;;;;;6.68;2.03;;;;;;;;;;2073346;28;20410;-79
2023/02/27 01:26:47;;;;;;;5.93;1.80;;;;;;;;;;2081610;28;20124;-79
2023/02/27 01:28:06;;;;;;;5.03;2.30;;;;;;;;;;2075805;28;20442;-79
2023/02/27 01:29:25;;;;;;;3.45;2.28;;;;;;;;;;2078109;28;20046;-79
2023/02/27 01:30:44;;;;;;;3.95;2.05;;;;;;;;;;2075294;28;20026;-79
2023/02/27 01:32:04;;;;;;;5.65;2.25;;;;;;;;;;2079341;28;20061;-79
2023/02/27 01:33:22;;;;;;;4.80;2.25;;;;;;;;;;2074342;28;20546;-78
2023/02/27 01:34:42;;;;;;;7.57;2.80;;;;;;;;;;2079683;28;20025;-79
2023/02/27 01:36:01;;;;;;;3.58;1.98;;;;;;;;;;2080741;28;20045;-79
2023/02/27 01:37:20;;;;;;;5.63;2.25;;;;;;;;;;2082891;28;20033;-78
2023/02/27 01:38:39;;;;;;;3.42;1.92;;;;;;;;;;2081381;28;20037;-79
2023/02/27 01:39:58;;;;;;;7.88;2.47;;;;;;;;;;2076009;28;20029;-80
2023/02/27 01:41:17;;;;;;;4.65;2.05;;;;;;;;;;2066550;28;20042;-79
2023/02/27 01:42:36;;;;;;;4.63;2.20;;;;;;;;;;2079116;28;20029;-79
2023/02/27 01:44:00;;;;;;;4.35;1.90;;;;;;;;;;2076846;28;20022;-79
2023/02/27 01:45:34;;;;;;;3.75;1.70;;;;;;;;;;2073342;28;20025;-80
2023/02/27 01:46:53;;;;;;;9.00;2.92;;;;;;;;;;2070335;28;20030;-80
2023/02/27 01:48:15;;;;;;;4.43;2.28;;;;;;;;;;2075388;28;20033;-79
2023/02/27 01:49:35;;;;;;;4.57;2.03;;;;;;;;;;2073043;28;20076;-80
2023/02/27 01:50:59;;;;;;;4.28;1.70;;;;;;;;;;2080741;28;20037;-79
2023/02/27 01:52:17;;;;;;;3.17;1.92;;;;;;;;;;2080102;28;20104;-78
2023/02/27 01:53:38;;;;;;;4.53;2.00;;;;;;;;;;2080555;28;20037;-79
2023/02/27 01:54:57;;;;;;;3.97;1.80;;;;;;;;;;2076592;28;20057;-78
2023/02/27 01:56:19;;;;;;;5.60;2.47;;;;;;;;;;2076582;28;20030;-79
2023/02/27 01:57:39;;;;;;;3.75;2.20;;;;;;;;;;2081140;28;20021;-79
2023/02/27 01:59:00;;;;;;;5.82;2.42;;;;;;;;;;2080656;28;20729;-79
2023/02/27 02:00:19;;;;;;;9.60;2.75;;;;;;;;;;2083512;28;20481;-79
2023/02/27 02:01:38;;;;;;;4.43;1.80;;;;;;;;;;2070101;28;20026;-79
2023/02/27 02:03:01;;;;;;;3.42;1.83;;;;;;;;;;2079335;28;20017;-79
2023/02/27 02:04:24;;;;;;;5.93;1.90;;;;;;;;;;2079428;28;20022;-79
2023/02/27 02:05:43;;;;;;;;;;;;;;;;;;2075800;28;20038;-79
2023/02/27 02:07:04;;;;;;;3.70;2.30;;;;;;;;;;2078618;28;19906;-79
2023/02/27 02:08:25;;;;;;;4.95;2.20;;;;;;;;;;2079385;28;20033;-79
2023/02/27 02:09:47;;;;;;;6.78;1.80;;;;;;;;;;2081794;28;20025;-79
2023/02/27 02:11:06;;;;;;;4.70;2.40;;;;;;;;;;2081711;28;20025;-79
2023/02/27 02:12:27;;;;;;;6.25;2.03;;;;;;;;;;2081133;28;20034;-78
2023/02/27 02:13:48;;;;;;;6.45;2.30;;;;;;;;;;2081532;28;20033;-78
2023/02/27 02:15:07;;;;;;;5.63;2.00;;;;;;;;;;2080846;28;20359;-79
2023/02/27 02:16:29;;;;;;;4.82;2.03;;;;;;;;;;2073801;28;20030;-79
2023/02/27 02:18:06;;;;;;;8.63;2.30;;;;;;;;;;2077714;28;20034;-79
2023/02/27 02:19:44;;;;;;;5.18;2.08;;;;;;;;;;2072126;28;20418;-79
2023/02/27 02:21:06;;;;;;;3.10;2.03;;;;;;;;;;2079168;28;20033;-79
2023/02/27 02:22:40;;;;;;;5.95;2.35;;;;;;;;;;2075018;28;20082;-79
2023/02/27 02:24:05;;;;;;;6.85;2.83;;;;;;;;;;2081534;28;20026;-79
2023/02/27 02:25:43;;;;;;;4.78;2.05;;;;;;;;;;2080469;28;20033;-79
2023/02/27 02:27:17;;;;;;;6.97;2.25;;;;;;;;;;2080695;28;20025;-80
2023/02/27 02:28:55;;;;;;;4.85;2.58;;;;;;;;;;2069888;28;20057;-79
2023/02/27 02:30:27;;;;;;;3.25;1.80;;;;;;;;;;2069941;28;20034;-79
2023/02/27 02:31:46;;;;;;;4.43;2.10;;;;;;;;;;2079624;28;20029;-79
2023/02/27 02:33:11;;;;;;;3.65;1.90;;;;;;;;;;2079989;28;20116;-79
2023/02/27 02:34:50;;;;;;;5.68;1.60;;;;;;;;;;2080237;28;20033;-80
2023/02/27 02:36:09;;;;;;;1.92;1.67;;;;;;;;;;2080489;28;20025;-78
2023/02/27 02:37:34;;;;;;;3.97;1.65;;;;;;;;;;2081571;28;20060;-79
2023/02/27 02:39:12;;;;;;;5.63;1.50;;;;;;;;;;2076291;28;20033;-79
2023/02/27 02:40:38;;;;;;;5.18;2.05;;;;;;;;;;2075058;28;20030;-78
2023/02/27 02:42:20;;;;;;;4.05;1.90;;;;;;;;;;2076012;28;20038;-79
2023/02/27 02:43:54;;;;;;;5.43;1.60;;;;;;;;;;2079832;28;20021;-80
2023/02/27 02:45:38;;;;;;;5.13;2.10;;;;;;;;;;2079785;28;20038;-79
2023/02/27 02:47:24;;;;;;;2.65;1.58;;;;;;;;;;2077124;28;20555;-79
2023/02/27 02:48:43;;;;;;;3.80;2.08;;;;;;;;;;2079157;28;20467;-79
2023/02/27 02:50:10;;;;;;;3.28;1.80;;;;;;;;;;2079649;28;20025;-80
2023/02/27 02:51:47;;;;;;;3.30;2.17;;;;;;;;;;2072341;28;20038;-80
2023/02/27 02:53:22;;;;;;;11.75;5.38;;;;;;;;;;2079455;28;20041;-79
2023/02/27 02:54:45;;;;;;;9.05;2.85;;;;;;;;;;2078077;28;20026;-79
2023/02/27 02:56:10;;;;;;;7.00;2.85;;;;;;;;;;2071922;28;20113;-79
2023/02/27 02:57:32;;;;;;;7.43;3.40;;;;;;;;;;2079727;28;20033;-79
2023/02/27 02:58:55;;;;;;;7.50;3.78;;;;;;;;;;2080714;28;20033;-79
2023/02/27 03:00:15;;;;;;;7.20;2.83;;;;;;;;;;2077763;28;20398;-78
2023/02/27 03:01:53;;;;;;;10.50;3.47;;;;;;;;;;2080867;28;20108;-79
2023/02/27 03:03:26;;;;;;;10.18;3.95;;;;;;;;;;2071897;28;20049;-77
2023/02/27 03:04:49;;;;;;;8.10;3.92;;;;;;;;;;2080045;28;20100;-78
2023/02/27 03:06:29;;;;;;;6.03;3.17;;;;;;;;;;2080494;28;20029;-79
2023/02/27 03:07:55;;;;;;;5.30;3.17;;;;;;;;;;2080765;28;20037;-79
2023/02/27 03:09:14;;;;;;;4.40;2.20;;;;;;;;;;2080254;28;20025;-79
2023/02/27 03:10:40;;;;;;;4.63;2.30;;;;;;;;;;2072938;28;20196;-79
2023/02/27 03:12:00;;;;;;;3.50;1.90;;;;;;;;;;2068513;28;20030;-78
2023/02/27 03:13:23;;;;;;;2.88;1.60;;;;;;;;;;2071006;28;20030;-80
2023/02/27 03:14:47;;;;;;;4.07;1.85;;;;;;;;;;2073546;28;20034;-77
2023/02/27 03:16:05;;;;;;;3.47;1.80;;;;;;;;;;2072577;28;20033;-80
2023/02/27 03:17:45;;;;;;;5.13;1.67;;;;;;;;;;2073780;28;20059;-80
2023/02/27 03:19:06;;;;;;;3.80;1.58;;;;;;;;;;2081003;28;20112;-81
2023/02/27 03:20:34;;;;;;;3.30;1.63;;;;;;;;;;2073256;28;20117;-77
2023/02/27 03:22:16;;;;;;;8.30;2.28;;;;;;;;;;2076828;28;20041;-79
2023/02/27 03:23:43;;;;;;;4.13;1.90;;;;;;;;;;2079096;28;20038;-78
2023/02/27 03:25:04;;;;;;;3.88;1.95;;;;;;;;;;2080191;28;20025;-79
2023/02/27 03:26:27;;;;;;;2.95;1.90;;;;;;;;;;2080589;28;20045;-78
2023/02/27 03:27:50;;;;;;;3.30;1.83;;;;;;;;;;2078850;28;20041;-78
2023/02/27 03:29:11;;;;;;;4.30;2.03;;;;;;;;;;2078774;28;20033;-77
2023/02/27 03:30:32;;;;;;;3.00;1.77;;;;;;;;;;2080518;28;20025;-78
2023/02/27 03:31:55;;;;;;;4.05;1.58;;;;;;;;;;2079532;28;20030;-79
2023/02/27 03:33:17;;;;;;;8.27;2.30;;;;;;;;;;2080457;28;20030;-78
2023/02/27 03:34:38;;;;;;;2.38;1.60;;;;;;;;;;2080506;28;20025;-81
2023/02/27 03:36:10;;;;;;;8.32;2.25;;;;;;;;;;2080934;28;20057;-79
2023/02/27 03:37:29;;;;;;;6.03;2.10;;;;;;;;;;2079553;28;20033;-78
2023/02/27 03:39:01;;;;;;;3.78;1.88;;;;;;;;;;2080270;28;20029;-77
2023/02/27 03:40:25;;;;;;;5.15;1.75;;;;;;;;;;2079823;28;20068;-81
2023/02/27 03:41:50;;;;;;;3.40;1.52;;;;;;;;;;2079457;28;21484;-81
2023/02/27 03:43:18;;;;;;;5.43;1.90;;;;;;;;;;2080403;28;20033;-79
2023/02/27 03:44:47;;;;;;;3.22;1.52;;;;;;;;;;2079239;28;20060;-79
2023/02/27 03:46:09;;;;;;;2.53;1.65;;;;;;;;;;2080129;28;20041;-78
2023/02/27 03:47:29;;;;;;;6.82;2.28;;;;;;;;;;2078903;28;20021;-78
2023/02/27 03:48:48;;;;;;;4.55;1.60;;;;;;;;;;2076274;28;20487;-78
2023/02/27 03:50:07;;;;;;;6.80;1.65;;;;;;;;;;2078816;28;20038;-78
2023/02/27 03:51:27;;;;;;;4.25;1.70;;;;;;;;;;2074878;28;20521;-78
2023/02/27 03:52:46;;;;;;;3.67;1.55;;;;;;;;;;2075410;28;20029;-78
2023/02/27 03:54:11;;;;;;;3.70;1.60;;;;;;;;;;2072903;28;20101;-79
2023/02/27 03:55:35;;;;;;;4.70;1.75;;;;;;;;;;2069152;28;20030;-78
2023/02/27 03:56:56;;;;;;;2.85;1.70;;;;;;;;;;2079486;28;20128;-78
2023/02/27 03:58:15;;;;;;;5.10;1.63;;;;;;;;;;2080016;28;20049;-78
2023/02/27 03:59:36;;;;;;;4.13;1.70;;;;;;;;;;2077996;28;20528;-80
2023/02/27 04:00:55;;;;;;;2.40;1.52;;;;;;;;;;2077361;28;20403;-79
2023/02/27 04:02:14;;;;;;;3.95;1.60;;;;;;;;;;2079393;28;20041;-78
2023/02/27 04:03:36;;;;;;;1.70;1.60;;;;;;;;;;2078840;28;20025;-79
2023/02/27 04:04:55;;;;;;;3.75;1.75;;;;;;;;;;2080740;28;20025;-80
2023/02/27 04:07:58;;;;;;;2.13;1.77;;;;;;;;;;2079461;28;20033;-79
2023/02/27 04:09:27;;;;;;;4.28;1.60;;;;;;;;;;2080626;28;20017;-78
2023/02/27 04:10:55;;;;;;;2.13;1.60;;;;;;;;;;2074749;28;20030;-79
2023/02/27 04:12:36;;;;;;;4.30;1.52;;;;;;;;;;2077665;28;20030;-79
2023/02/27 04:13:58;;;;;;;3.35;1.80;;;;;;;;;;2078001;28;20093;-79
2023/02/27 04:15:26;;;;;;;2.95;1.73;;;;;;;;;;2076285;28;20021;-79
2023/02/27 04:16:45;;;;;;;3.42;1.65;;;;;;;;;;2073417;28;20063;-81
2023/02/27 04:18:10;;;;;;;3.63;1.73;;;;;;;;;;2077133;28;20034;-80
2023/02/27 04:19:32;;;;;;;4.07;1.40;;;;;;;;;;2078530;28;20386;-79
2023/02/27 04:21:06;;;;;;;3.05;1.70;;;;;;;;;;2069833;28;20038;-78
2023/02/27 04:22:35;;;;;;;4.22;1.58;;;;;;;;;;2079831;28;20041;-79
2023/02/27 04:23:56;;;;;;;2.78;1.90;;;;;;;;;;2070840;28;20038;-79
2023/02/27 04:25:15;;;;;;;4.47;1.70;;;;;;;;;;2077264;28;20034;-79
2023/02/27 04:26:39;;;;;;;2.90;1.92;;;;;;;;;;2079057;28;20033;-80
2023/02/27 04:28:10;;;;;;;5.15;1.70;;;;;;;;;;2080633;28;20069;-80
2023/02/27 04:29:38;;;;;;;3.13;1.85;;;;;;;;;;2078382;28;20100;-79
2023/02/27 04:31:23;;;;;;;5.38;1.83;;;;;;;;;;2079971;28;20112;-80
2023/02/27 04:32:41;;;;;;;;;;;;;;;;;;2082755;28;20053;-79
2023/02/27 04:34:07;;;;;;;6.78;1.75;;;;;;;;;;2081833;28;19931;-79
2023/02/27 04:35:33;;;;;;;4.78;2.00;;;;;;;;;;2079902;28;20030;-79
2023/02/27 04:36:55;;;;;;;5.93;2.13;;;;;;;;;;2072160;28;20519;-79
2023/02/27 04:38:34;;;;;;;2.97;1.80;;;;;;;;;;2078589;28;20029;-79
2023/02/27 04:39:56;;;;;;;5.75;1.80;;;;;;;;;;2079813;28;20030;-79
2023/02/27 04:41:19;;;;;;;2.63;1.60;;;;;;;;;;2080023;28;20038;-80
2023/02/27 04:42:38;;;;;;;;;;;;;;;;;;2079550;28;20049;-80
2023/02/27 04:43:59;;;;;;;4.18;1.70;;;;;;;;;;2079656;28;19992;-80
2023/02/27 04:45:20;;;;;;;3.33;1.83;;;;;;;;;;2079627;28;20462;-79
2023/02/27 04:46:41;;;;;;;3.38;1.50;;;;;;;;;;2079974;28;20394;-80
2023/02/27 04:48:06;;;;;;;3.47;1.73;;;;;;;;;;2077002;28;20030;-79
2023/02/27 04:49:27;;;;;;;3.58;2.05;;;;;;;;;;2066466;28;20022;-79
2023/02/27 04:50:50;;;;;;;4.22;1.67;;;;;;;;;;2078139;28;20033;-79
2023/02/27 04:52:12;;;;;;;3.10;1.77;;;;;;;;;;2078210;28;20037;-80
2023/02/27 04:53:37;;;;;;;3.45;1.55;;;;;;;;;;2079418;28;20074;-79
2023/02/27 04:55:01;;;;;;;2.22;1.48;;;;;;;;;;2079909;28;20038;-80
2023/02/27 04:56:49;;;;;;;4.00;1.70;;;;;;;;;;2081385;28;20460;-80
2023/02/27 04:58:10;;;;;;;2.70;1.58;;;;;;;;;;2072506;28;20041;-80
2023/02/27 04:59:32;;;;;;;5.80;1.88;;;;;;;;;;2074237;28;20030;-80
2023/02/27 05:00:57;;;;;;;6.60;1.80;;;;;;;;;;2067445;28;20026;-80
2023/02/27 05:02:23;;;;;;;4.00;1.77;;;;;;;;;;2076457;28;20021;-80
2023/02/27 05:03:46;;;;;;;5.97;1.88;;;;;;;;;;2075052;28;20029;-80
2023/02/27 05:05:08;;;;;;;2.90;1.83;;;;;;;;;;2070903;28;20042;-80
2023/02/27 05:06:29;;;;;;;3.70;1.60;;;;;;;;;;2071766;28;20021;-80
2023/02/27 05:07:53;;;;;;;5.40;1.70;;;;;;;;;;2071146;28;20034;-80
2023/02/27 05:09:31;;;;;;;3.85;2.05;;;;;;;;;;2080202;28;20116;-79
2023/02/27 05:10:54;;;;;;;3.88;1.55;;;;;;;;;;2080658;28;20021;-80
2023/02/27 05:12:13;;;;;;;;;;;;;;;;;;2082024;28;20033;-80
2023/02/27 05:13:42;;;;;;;4.90;1.70;;;;;;;;;;2079361;28;19905;-80
2023/02/27 05:15:01;;;;;;;4.28;1.45;;;;;;;;;;2080859;28;20061;-80
2023/02/27 05:16:25;;;;;;;3.67;2.00;;;;;;;;;;2079945;28;20029;-80
2023/02/27 05:17:51;;;;;;;4.43;1.80;;;;;;;;;;2071618;28;20076;-78
2023/02/27 05:19:10;;;;;;;3.15;1.70;;;;;;;;;;2077981;28;20108;-80
2023/02/27 05:20:35;;;;;;;1.60;1.50;;;;;;;;;;2082447;28;20026;-80
2023/02/27 05:21:59;;;;;;;4.15;1.52;;;;;;;;;;2078762;28;20422;-79
2023/02/27 05:23:35;;;;;;;2.90;1.50;;;;;;;;;;2078082;28;20029;-80
2023/02/27 05:25:05;;;;;;;7.07;2.25;;;;;;;;;;2080158;28;20025;-80
2023/02/27 05:26:23;;;;;;;2.42;1.45;;;;;;;;;;2079395;28;20112;-80
2023/02/27 05:28:02;;;;;;;5.03;1.58;;;;;;;;;;2075301;28;20018;-81
2023/02/27 05:29:40;;;;;;;3.60;1.60;;;;;;;;;;2082629;28;20020;-81
2023/02/27 05:31:06;;;;;;;3.97;1.92;;;;;;;;;;2080360;28;20806;-81
2023/02/27 05:32:30;;;;;;;3.22;1.45;;;;;;;;;;2073420;28;20030;-81
2023/02/27 05:33:58;;;;;;;5.57;1.50;;;;;;;;;;2077935;28;20060;-79
2023/02/27 05:35:20;;;;;;;3.80;1.60;;;;;;;;;;2073813;28;20038;-79
2023/02/27 05:36:42;;;;;;;2.70;1.40;;;;;;;;;;2072113;28;20054;-80
2023/02/27 05:38:04;;;;;;;3.40;1.40;;;;;;;;;;2080379;28;20018;-83
2023/02/27 05:39:26;;;;;;;3.83;1.48;;;;;;;;;;2074370;28;21211;-81
2023/02/27 05:40:47;;;;;;;3.17;1.67;;;;;;;;;;2078332;28;20041;-81
2023/02/27 05:42:10;;;;;;;5.28;1.90;;;;;;;;;;2071084;28;20038;-82
2023/02/27 05:43:50;;;;;;;3.63;1.63;;;;;;;;;;2078173;28;20017;-83
2023/02/27 05:45:12;;;;;;;2.30;1.63;;;;;;;;;;2071925;28;20053;-79
2023/02/27 05:46:35;;;;;;;7.85;2.15;;;;;;;;;;2077192;28;20025;-78
2023/02/27 05:47:57;;;;;;;3.88;1.70;;;;;;;;;;2075718;28;20034;-79
2023/02/27 05:49:19;;;;;;;3.22;1.73;;;;;;;;;;2076788;28;20038;-80
2023/02/27 05:50:39;;;;;;;2.42;1.67;;;;;;;;;;2080794;28;20022;-80
2023/02/27 05:52:01;;;;;;;2.13;1.63;;;;;;;;;;2081851;28;20497;-77
2023/02/27 05:53:20;;;;;;;5.63;1.80;;;;;;;;;;2076084;28;20057;-80
2023/02/27 05:55:00;;;;;;;4.38;1.30;;;;;;;;;;2069491;28;20038;-80
2023/02/27 05:56:21;;;;;;;2.15;1.23;;;;;;;;;;2080857;28;20034;-83
2023/02/27 05:57:43;;;;;;;4.50;1.80;;;;;;;;;;2075508;28;20026;-81
2023/02/27 05:59:09;;;;;;;5.55;1.65;;;;;;;;;;2078859;28;20470;-79
2023/02/27 06:00:34;;;;;;;2.35;1.20;;;;;;;;;;2081263;28;20030;-80
2023/02/27 06:01:53;;;;;;;3.05;1.50;;;;;;;;;;2081561;28;20038;-83
2023/02/27 06:03:12;;;;;;;4.28;1.63;;;;;;;;;;2080177;28;20080;-80
2023/02/27 06:04:31;;;;;;;3.83;1.33;;;;;;;;;;2079723;28;20383;-80
2023/02/27 06:05:52;;;;;;;1.80;1.70;;;;;;;;;;2082181;28;20514;-83
2023/02/27 06:07:12;;;;;;;1.65;1.10;;;;;;;;;;2082743;28;20025;-83
2023/02/27 06:08:31;;;;;;;3.55;1.65;;;;;;;;;;2082097;28;20029;-82
2023/02/27 06:09:50;;;;;;;4.68;1.95;;;;;;;;;;2075735;28;20057;-83
2023/02/27 06:11:10;;;;;;;2.08;1.77;;;;;;;;;;2079553;28;20026;-80
2023/02/27 06:12:29;;;;;;;2.10;1.67;;;;;;;;;;2075700;28;20483;-77
2023/02/27 06:13:48;;;;;;;5.45;1.75;;;;;;;;;;2077403;28;20029;-80
2023/02/27 06:15:08;;;;;;;3.03;1.63;;;;;;;;;;2081565;28;20026;-82
2023/02/27 06:16:27;;;;;;;5.82;1.65;;;;;;;;;;2082033;28;20543;-78
2023/02/27 06:17:48;;;;;;;3.05;1.45;;;;;;;;;;2081059;28;20109;-79
2023/02/27 06:19:07;;;;;;;3.17;1.60;;;;;;;;;;2071114;28;20034;-78
2023/02/27 06:20:25;;;;;;;2.25;1.35;;;;;;;;;;2069958;28;20018;-79
2023/02/27 06:21:45;;;;;;;4.10;1.73;;;;;;;;;;2074103;28;20046;-78
2023/02/27 06:23:04;;;;;;;1.75;1.25;;;;;;;;;;2079021;28;20040;-78
2023/02/27 06:24:23;;;;;;;4.25;1.35;;;;;;;;;;2075607;28;20483;-77
2023/02/27 06:25:42;;;;;;;2.72;1.48;;;;;;;;;;2076472;28;20427;-78
2023/02/27 06:27:01;;;;;;;2.42;1.48;;;;;;;;;;2081142;28;20486;-77
2023/02/27 06:28:20;;;;;;;3.15;1.42;;;;;;;;;;2081734;28;20030;-77
2023/02/27 06:29:39;;;;;;;2.83;1.90;;;;;;;;;;2076880;28;20507;-78
2023/02/27 06:31:01;;;;;;;2.08;1.40;;;;;;;;;;2072628;28;20034;-78
2023/02/27 06:32:23;;;;;;;2.58;1.40;;;;;;;;;;2080197;28;20526;-79
2023/02/27 06:33:43;;;;;;;4.88;1.63;;;;;;;;;;2074554;28;20030;-78
2023/02/27 06:35:01;;;;;;;2.72;1.50;;;;;;;;;;2079837;28;20022;-79
2023/02/27 06:36:21;;;;;;;5.22;1.80;;;;;;;;;;2072910;28;20066;-78
2023/02/27 06:37:40;;;;;;;2.42;1.60;;;;;;;;;;2076912;28;20022;-78
2023/02/27 06:38:59;;;;;;;3.92;1.80;;;;;;;;;;2084016;28;20042;-78
2023/02/27 06:40:18;;;;;;;2.20;1.38;;;;;;;;;;2075209;28;20029;-78
2023/02/27 06:41:37;;;;;;;2.75;1.70;;;;;;;;;;2079485;28;20104;-79
2023/02/27 06:42:56;;;;;;;3.58;2.08;;;;;;;;;;2079439;28;20021;-79
2023/02/27 06:44:15;;;;;;;3.85;1.60;;;;;;;;;;2075180;28;20030;-79
2023/02/27 06:45:34;;;;;;;2.92;1.33;;;;;;;;;;2073927;28;20053;-78
2023/02/27 06:46:53;;;;;;;3.80;1.60;;;;;;;;;;2072630;28;20022;-78
2023/02/27 06:48:13;;;;;;;4.05;1.80;;;;;;;;;;2077087;28;20137;-77
2023/02/27 06:49:32;;;;;;;3.40;1.63;;;;;;;;;;2074817;28;20026;-76
2023/02/27 06:50:52;;;;;;;2.05;1.42;;;;;;;;;;2080618;28;20387;-77
2023/02/27 06:52:11;;;;;;;1.90;1.65;;;;;;;;;;2075554;28;20033;-77
2023/02/27 06:53:30;;;;;;;3.40;1.38;;;;;;;;;;2077355;28;20395;-76
2023/02/27 06:54:49;;;;;;;2.78;1.48;;;;;;;;;;2079959;28;20065;-77
2023/02/27 06:56:07;;;;;;;2.85;1.52;;;;;;;;;;2079823;28;20034;-77
2023/02/27 06:57:28;;;;;;;1.45;1.23;;;;;;;;;;2082357;28;20045;-77
2023/02/27 06:58:46;;;;;;;6.03;1.35;;;;;;;;;;2072734;28;20073;-76
2023/02/27 07:00:06;;;;;;;2.25;1.50;;;;;;;;;;2069223;28;20026;-76
2023/02/27 07:01:25;;;;;;;1.80;1.27;;;;;;;;;;2069500;28;20113;-77
2023/02/27 07:02:44;;;;;;;2.78;1.30;;;;;;;;;;2079673;28;20021;-76
2023/02/27 07:04:03;;;;;;;2.15;1.45;;;;;;;;;;2079435;28;20029;-76
2023/02/27 07:05:22;;;;;;;1.40;1.30;;;;;;;;;;2082451;28;20466;-76
2023/02/27 07:06:41;;;;;;;1.30;1.20;;;;;;;;;;2074612;28;20033;-77
2023/02/27 07:08:02;;;;;;;1.85;1.70;;;;;;;;;;2078455;28;20108;-76
2023/02/27 07:09:22;;;;;;;1.25;1.10;;;;;;;;;;2073883;28;21670;-76
2023/02/27 07:10:42;;;;;;;1.60;1.50;;;;;;;;;;2072620;28;20062;-76
2023/02/27 07:12:02;;;;;;;3.67;1.55;;;;;;;;;;2076769;28;20025;-77
2023/02/27 07:13:21;;;;;;;2.20;1.48;;;;;;;;;;2073603;28;20105;-77
2023/02/27 07:14:41;;;;;;;5.00;1.65;;;;;;;;;;2071707;28;20602;-77
2023/02/27 07:16:00;;;;;;;3.00;1.50;;;;;;;;;;2072105;28;20039;-78
2023/02/27 07:17:18;;;;;;;4.60;1.50;;;;;;;;;;2077776;28;20057;-78
2023/02/27 07:18:37;;;;;;;2.15;1.80;;;;;;;;;;2080145;28;20022;-78
2023/02/27 07:19:56;;;;;;;2.90;1.63;;;;;;;;;;2072729;28;20025;-78
2023/02/27 07:21:15;;;;;;;6.22;1.73;;;;;;;;;;2078430;28;20040;-78
2023/02/27 07:22:34;;;;;;;3.72;1.45;;;;;;;;;;2080747;28;20026;-77
2023/02/27 07:23:53;;;;;;;2.45;1.33;;;;;;;;;;2081690;28;20018;-77
2023/02/27 07:25:12;;;;;;;1.50;1.40;;;;;;;;;;2078151;28;20489;-77
2023/02/27 07:26:31;;;;;;;2.08;1.42;;;;;;;;;;2079622;28;20041;-77
2023/02/27 07:27:50;;;;;;;3.95;1.73;;;;;;;;;;2078315;28;20026;-77
2023/02/27 07:29:09;;;;;;;1.73;1.30;;;;;;;;;;2081852;28;20030;-77
2023/02/27 07:30:29;;;;;;;2.13;1.70;;;;;;;;;;2074654;28;20034;-77
2023/02/27 07:31:48;;;;;;;4.30;1.50;;;;;;;;;;2070246;28;20410;-78
2023/02/27 07:33:07;;;;;;;3.30;1.48;;;;;;;;;;2077559;28;20077;-77
2023/02/27 07:34:26;;;;;;;2.58;1.70;;;;;;;;;;2071684;28;20029;-77
2023/02/27 07:35:44;;;;;;;2.55;1.23;;;;;;;;;;2077806;28;20128;-76
2023/02/27 07:37:03;;;;;;;3.70;1.70;;;;;;;;;;2082783;28;20021;-78
2023/02/27 07:38:22;;;;;;;1.50;1.20;;;;;;;;;;2081326;28;20029;-76
2023/02/27 07:39:42;;;;;;;3.00;1.30;;;;;;;;;;2080327;28;20041;-77
2023/02/27 07:41:01;;;;;;;2.45;1.20;;;;;;;;;;2079979;28;20029;-76
2023/02/27 07:42:20;;;;;;;2.90;1.63;;;;;;;;;;2073990;28;20108;-77
2023/02/27 07:43:39;;;;;;;1.05;0.95;;;;;;;;;;2078420;28;20022;-77
2023/02/27 07:44:59;;;;;;;1.70;1.00;;;;;;;;;;2080591;28;20030;-77
2023/02/27 07:46:18;;;;;;;2.55;1.25;;;;;;;;;;2080937;28;20065;-77
2023/02/27 07:47:38;;;;;;;1.10;1.00;;;;;;;;;;2080438;28;20029;-76
2023/02/27 07:48:57;;;;;;;2.03;1.17;;;;;;;;;;2080875;28;20030;-76
2023/02/27 07:50:16;;;;;;;2.70;1.20;;;;;;;;;;2074394;28;20105;-78
2023/02/27 07:51:36;;;;;;;1.55;1.05;;;;;;;;;;2079161;28;20158;-77
2023/02/27 07:52:55;;;;;;;2.13;1.27;;;;;;;;;;2080551;28;20148;-75
2023/02/27 07:54:13;;;;;;;2.95;1.08;;;;;;;;;;2080764;28;20486;-75
2023/02/27 07:55:33;;;;;;;2.33;1.30;;;;;;;;;;2081197;28;20029;-78
2023/02/27 07:56:51;;;;;;;2.17;1.40;;;;;;;;;;2073009;28;20030;-77
2023/02/27 07:58:12;;;;;;;1.42;0.80;;;;;;;;;;2079731;28;20030;-80
2023/02/27 07:59:31;;;;;;;1.42;1.08;;;;;;;;;;2079448;28;20029;-76
2023/02/27 08:00:52;;;;;;;2.00;1.40;;;;;;;;;;2080232;28;20034;-81
2023/02/27 08:02:11;;;;;;;2.72;1.40;;;;;;;;;;2083596;28;20061;-77
2023/02/27 08:03:30;;;;;;;2.13;1.10;;;;;;;;;;2074832;28;20069;-78
2023/02/27 08:04:50;;;;;;;1.77;1.17;;;;;;;;;;2072914;28;20033;-79
2023/02/27 08:06:10;;;;;;;1.58;0.98;;;;;;;;;;2073832;28;20045;-82
2023/02/27 08:07:29;;;;;;;1.60;1.35;;;;;;;;;;2072653;28;20025;-86
2023/02/27 08:08:51;;;;;;;0.77;0.77;;;;;;;;;;2066800;28;20479;-82
2023/02/27 08:10:10;;;;;;;1.38;1.10;;;;;;;;;;2078278;28;20041;-79
2023/02/27 08:11:29;;;;;;;3.30;1.13;;;;;;;;;;2080608;28;20022;-80
2023/02/27 08:12:48;;;;;;;9.55;1.20;;;;;;;;;;2080538;28;20033;-80
2023/02/27 08:14:07;;;;;;;1.75;1.50;;;;;;;;;;2073120;28;20029;-78
2023/02/27 08:15:26;;;;;;;1.30;0.90;;;;;;;;;;2073694;28;20057;-79